Time;durP1;ratioP1;P1;durP2;ratioP2;P2;SDS_P1;SDS_P2;PMS_P1;PMS_P2;Temp;Humidity;BMP_temperature;BMP_pressure;BME280_temperature;BME280_humidity;BME280_pressure;Samples;Min_cycle;Max_cycle;Signal;HPM_P1;HPM_P2
2023/07/13 00:02:23;;;;;;;10.63;3.65;;;;;;;;;;6126810;23;20100;-82
2023/07/13 00:04:50;;;;;;;7.00;2.97;;;;;;;;;;6125849;23;20040;-82
2023/07/13 00:07:19;;;;;;;8.95;4.05;;;;;;;;;;6126188;23;20018;-82
2023/07/13 00:09:45;;;;;;;6.90;2.85;;;;;;;;;;6125533;23;20104;-82
2023/07/13 00:12:23;;;;;;;5.97;2.47;;;;;;;;;;6154985;23;20049;-82
2023/07/13 00:14:50;;;;;;;7.05;3.15;;;;;;;;;;6153789;23;20009;-82
2023/07/13 00:17:16;;;;;;;7.65;3.28;;;;;;;;;;6154704;23;20020;-82
2023/07/13 00:19:42;;;;;;;6.35;3.40;;;;;;;;;;6153828;23;20076;-82
2023/07/13 00:22:07;;;;;;;7.35;3.65;;;;;;;;;;6154550;23;20049;-82
2023/07/13 00:24:35;;;;;;;5.45;2.92;;;;;;;;;;6154060;23;20007;-82
2023/07/13 00:27:01;;;;;;;7.85;2.92;;;;;;;;;;6128429;23;20053;-82
2023/07/13 00:29:27;;;;;;;10.88;3.50;;;;;;;;;;6154198;23;20117;-82
2023/07/13 00:31:54;;;;;;;6.30;3.55;;;;;;;;;;6154650;23;20068;-82
2023/07/13 00:34:20;;;;;;;8.10;3.47;;;;;;;;;;6175033;23;20361;-82
2023/07/13 00:36:46;;;;;;;7.57;2.95;;;;;;;;;;6156867;23;20020;-82
2023/07/13 00:39:13;;;;;;;7.28;2.95;;;;;;;;;;6183855;23;20004;-82
2023/07/13 00:41:39;;;;;;;7.20;3.00;;;;;;;;;;6157483;23;20056;-82
2023/07/13 00:44:05;;;;;;;6.47;2.90;;;;;;;;;;6185412;23;20005;-82
2023/07/13 00:46:32;;;;;;;6.72;3.10;;;;;;;;;;6157121;23;20131;-82
2023/07/13 00:49:01;;;;;;;7.35;2.95;;;;;;;;;;6157578;23;20695;-81
2023/07/13 00:51:47;;;;;;;6.60;2.30;;;;;;;;;;6185326;23;20037;-82
2023/07/13 00:54:19;;;;;;;8.15;3.05;;;;;;;;;;6184848;23;20021;-82
2023/07/13 00:56:46;;;;;;;6.30;2.78;;;;;;;;;;6158461;23;20322;-82
2023/07/13 00:59:13;;;;;;;8.32;2.95;;;;;;;;;;6185101;23;20005;-82
2023/07/13 01:01:40;;;;;;;6.85;2.78;;;;;;;;;;6184081;23;20016;-82
2023/07/13 01:04:07;;;;;;;6.03;2.65;;;;;;;;;;6157435;23;20005;-83
2023/07/13 01:06:34;;;;;;;6.20;2.83;;;;;;;;;;6183939;23;20048;-82
2023/07/13 01:09:01;;;;;;;5.50;2.95;;;;;;;;;;6184499;23;20084;-81
2023/07/13 01:11:28;;;;;;;6.63;3.00;;;;;;;;;;6158090;23;20424;-81
2023/07/13 01:13:54;;;;;;;6.13;3.00;;;;;;;;;;6185272;23;20352;-81
2023/07/13 01:16:27;;;;;;;7.38;3.00;;;;;;;;;;6157117;23;20015;-81
2023/07/13 01:18:57;;;;;;;9.10;2.60;;;;;;;;;;6183797;23;20096;-81
2023/07/13 01:21:23;;;;;;;7.45;2.70;;;;;;;;;;6156873;23;20009;-81
2023/07/13 01:23:49;;;;;;;6.30;2.83;;;;;;;;;;6157695;23;20048;-81
2023/07/13 01:26:15;;;;;;;12.20;3.40;;;;;;;;;;6183856;23;20084;-81
2023/07/13 01:28:41;;;;;;;8.35;3.25;;;;;;;;;;6183160;23;20056;-81
2023/07/13 01:31:09;;;;;;;7.10;2.88;;;;;;;;;;6183651;23;20337;-81
2023/07/13 01:33:35;;;;;;;6.10;2.70;;;;;;;;;;6183574;23;20005;-81
2023/07/13 01:36:02;;;;;;;6.03;2.67;;;;;;;;;;6182995;23;20012;-81
2023/07/13 01:38:28;;;;;;;7.30;2.88;;;;;;;;;;6182864;23;20012;-81
2023/07/13 01:40:54;;;;;;;6.25;2.53;;;;;;;;;;6182928;23;20009;-81
2023/07/13 01:43:22;;;;;;;6.35;2.33;;;;;;;;;;6183269;23;20096;-81
2023/07/13 01:45:48;;;;;;;6.82;2.97;;;;;;;;;;6182491;23;20056;-81
2023/07/13 01:48:14;;;;;;;7.10;2.70;;;;;;;;;;6184044;23;20017;-81
2023/07/13 01:50:40;;;;;;;8.75;3.80;;;;;;;;;;6183109;23;20496;-81
2023/07/13 01:53:06;;;;;;;5.13;2.45;;;;;;;;;;6183164;23;20015;-81
2023/07/13 01:55:32;;;;;;;8.35;3.00;;;;;;;;;;6183716;23;20129;-82
2023/07/13 01:57:58;;;;;;;6.47;3.08;;;;;;;;;;6158789;23;20016;-82
2023/07/13 02:00:24;;;;;;;7.00;2.88;;;;;;;;;;6184102;23;20001;-81
2023/07/13 02:02:51;;;;;;;6.10;2.78;;;;;;;;;;6184976;23;20433;-82
2023/07/13 02:05:17;;;;;;;6.68;2.90;;;;;;;;;;6184260;23;20004;-82
2023/07/13 02:07:43;;;;;;;7.15;2.78;;;;;;;;;;6184227;23;20033;-82
2023/07/13 02:10:10;;;;;;;8.45;3.00;;;;;;;;;;6183560;23;20036;-82
2023/07/13 02:12:36;;;;;;;7.88;3.10;;;;;;;;;;6184464;23;20029;-82
2023/07/13 02:15:03;;;;;;;6.10;2.60;;;;;;;;;;6156102;23;20021;-81
2023/07/13 02:17:29;;;;;;;6.75;3.15;;;;;;;;;;6184029;23;20409;-82
2023/07/13 02:19:55;;;;;;;8.65;3.60;;;;;;;;;;6183805;23;20013;-82
2023/07/13 02:22:21;;;;;;;11.07;3.53;;;;;;;;;;6183933;23;20324;-81
2023/07/13 02:24:47;;;;;;;7.40;2.80;;;;;;;;;;6157501;23;20688;-82
2023/07/13 02:27:13;;;;;;;8.77;2.90;;;;;;;;;;6184093;23;20005;-82
2023/07/13 02:29:39;;;;;;;8.43;2.88;;;;;;;;;;6183380;23;20021;-82
2023/07/13 02:32:05;;;;;;;10.57;2.70;;;;;;;;;;6157378;23;20009;-82
2023/07/13 02:34:31;;;;;;;7.57;2.63;;;;;;;;;;6184290;23;20041;-82
2023/07/13 02:36:57;;;;;;;8.50;3.40;;;;;;;;;;6158335;23;20375;-83
2023/07/13 02:39:23;;;;;;;6.03;3.00;;;;;;;;;;6184509;23;20156;-82
2023/07/13 02:41:49;;;;;;;8.85;3.65;;;;;;;;;;6183645;23;20005;-82
2023/07/13 02:44:16;;;;;;;10.48;2.70;;;;;;;;;;6183932;23;20013;-81
2023/07/13 02:46:42;;;;;;;6.88;2.75;;;;;;;;;;6156374;23;20306;-81
2023/07/13 02:49:08;;;;;;;7.47;3.00;;;;;;;;;;6156354;23;20027;-82
2023/07/13 02:51:34;;;;;;;8.93;2.65;;;;;;;;;;6182750;23;20043;-82
2023/07/13 02:54:01;;;;;;;5.78;2.50;;;;;;;;;;6183197;23;20020;-82
2023/07/13 02:56:28;;;;;;;7.47;2.97;;;;;;;;;;6182866;23;20078;-82
2023/07/13 02:58:55;;;;;;;5.63;2.92;;;;;;;;;;6182836;23;20013;-82
2023/07/13 03:01:21;;;;;;;6.72;2.80;;;;;;;;;;6183393;23;20735;-82
2023/07/13 03:03:48;;;;;;;6.60;2.70;;;;;;;;;;6182839;23;20079;-81
2023/07/13 03:06:14;;;;;;;7.07;3.35;;;;;;;;;;6183218;23;20005;-82
2023/07/13 03:08:40;;;;;;;12.32;2.63;;;;;;;;;;6182253;23;20017;-82
2023/07/13 03:11:10;;;;;;;9.00;2.22;;;;;;;;;;6156567;23;20343;-82
2023/07/13 03:13:37;;;;;;;7.18;2.42;;;;;;;;;;6183827;23;20336;-82
2023/07/13 03:16:03;;;;;;;8.43;2.60;;;;;;;;;;6158448;23;20012;-82
2023/07/13 03:18:29;;;;;;;9.25;3.05;;;;;;;;;;6157463;23;20045;-82
2023/07/13 03:20:55;;;;;;;5.53;2.67;;;;;;;;;;6157545;23;20009;-82
2023/07/13 03:23:22;;;;;;;5.55;2.50;;;;;;;;;;6183615;23;20040;-82
2023/07/13 03:25:48;;;;;;;6.03;2.50;;;;;;;;;;6157612;23;20009;-82
2023/07/13 03:28:15;;;;;;;6.70;2.97;;;;;;;;;;6156388;23;20013;-82
2023/07/13 03:30:41;;;;;;;10.10;2.60;;;;;;;;;;6183596;23;20029;-82
2023/07/13 03:33:07;;;;;;;8.90;3.33;;;;;;;;;;6157638;23;20558;-82
2023/07/13 03:35:34;;;;;;;9.15;2.70;;;;;;;;;;6184417;23;20009;-82
2023/07/13 03:38:00;;;;;;;5.60;2.25;;;;;;;;;;6184592;23;20448;-82
2023/07/13 03:40:27;;;;;;;9.98;2.58;;;;;;;;;;6157353;23;20088;-82
2023/07/13 03:42:53;;;;;;;9.80;3.00;;;;;;;;;;6183279;23;20039;-82
2023/07/13 03:45:19;;;;;;;8.68;3.08;;;;;;;;;;6158137;23;20017;-82
2023/07/13 03:47:46;;;;;;;5.75;2.97;;;;;;;;;;6185015;23;20020;-82
2023/07/13 03:50:12;;;;;;;11.65;3.50;;;;;;;;;;6185244;23;20508;-82
2023/07/13 03:52:38;;;;;;;7.78;3.28;;;;;;;;;;6185882;23;20009;-82
2023/07/13 03:55:05;;;;;;;7.82;3.15;;;;;;;;;;6158762;23;20064;-82
2023/07/13 03:57:31;;;;;;;6.50;3.33;;;;;;;;;;6186337;23;20104;-82
2023/07/13 03:59:57;;;;;;;8.57;3.10;;;;;;;;;;6185914;23;20709;-82
2023/07/13 04:02:23;;;;;;;10.30;2.75;;;;;;;;;;6186198;23;20016;-82
2023/07/13 04:04:49;;;;;;;5.82;2.78;;;;;;;;;;6185463;23;20001;-82
2023/07/13 04:07:15;;;;;;;11.68;3.00;;;;;;;;;;6158899;23;20619;-82
2023/07/13 04:09:41;;;;;;;9.98;3.00;;;;;;;;;;6184889;23;20028;-81
2023/07/13 04:12:08;;;;;;;6.75;2.65;;;;;;;;;;6185042;23;20402;-82
2023/07/13 04:14:33;;;;;;;5.15;2.78;;;;;;;;;;6183289;23;20476;-81
2023/07/13 04:16:59;;;;;;;4.63;2.42;;;;;;;;;;6157860;23;20024;-81
2023/07/13 04:19:25;;;;;;;8.18;2.88;;;;;;;;;;6157510;23;20005;-81
2023/07/13 04:21:52;;;;;;;5.00;2.83;;;;;;;;;;6184410;23;20081;-81
2023/07/13 04:24:18;;;;;;;5.13;2.88;;;;;;;;;;6157285;23;20012;-81
2023/07/13 04:26:45;;;;;;;9.52;3.50;;;;;;;;;;6157686;23;20009;-81
2023/07/13 04:29:11;;;;;;;8.32;3.15;;;;;;;;;;6156604;23;20017;-81
2023/07/13 04:31:37;;;;;;;7.60;2.22;;;;;;;;;;6183683;23;20008;-82
2023/07/13 04:34:03;;;;;;;6.75;2.42;;;;;;;;;;6184978;23;20089;-82
2023/07/13 04:36:29;;;;;;;6.15;3.28;;;;;;;;;;6157196;23;20056;-82
2023/07/13 04:38:55;;;;;;;8.90;2.92;;;;;;;;;;6157621;23;20009;-82
2023/07/13 04:41:22;;;;;;;6.22;2.90;;;;;;;;;;6183519;23;20032;-82
2023/07/13 04:43:48;;;;;;;6.40;2.92;;;;;;;;;;6157262;23;20045;-82
2023/07/13 04:46:17;;;;;;;11.63;3.13;;;;;;;;;;6183839;23;20004;-82
2023/07/13 04:48:43;;;;;;;11.07;3.08;;;;;;;;;;6157048;23;20041;-82
2023/07/13 04:51:09;;;;;;;8.40;2.75;;;;;;;;;;6183626;23;20076;-82
2023/07/13 04:53:35;;;;;;;5.68;2.53;;;;;;;;;;6183117;23;20017;-81
2023/07/13 04:56:02;;;;;;;7.68;2.75;;;;;;;;;;6182546;23;20788;-82
2023/07/13 04:58:28;;;;;;;8.43;3.08;;;;;;;;;;6182805;23;20009;-81
2023/07/13 05:00:59;;;;;;;13.63;2.88;;;;;;;;;;6156180;23;20039;-83
2023/07/13 05:03:25;;;;;;;10.68;2.67;;;;;;;;;;6157081;23;20437;-82
2023/07/13 05:06:09;;;;;;;11.50;3.08;;;;;;;;;;6156313;23;20044;-82
2023/07/13 05:08:36;;;;;;;8.85;3.00;;;;;;;;;;6156368;23;20326;-82
2023/07/13 05:11:02;;;;;;;10.75;3.63;;;;;;;;;;6182703;23;20015;-82
2023/07/13 05:13:28;;;;;;;9.35;3.30;;;;;;;;;;6182792;23;20092;-81
2023/07/13 05:15:59;;;;;;;6.75;3.88;;;;;;;;;;6182552;23;20083;-82
2023/07/13 05:18:25;;;;;;;9.32;3.47;;;;;;;;;;6183909;23;20005;-83
2023/07/13 05:21:01;;;;;;;8.55;3.33;;;;;;;;;;6158130;23;20009;-83
2023/07/13 05:23:27;;;;;;;9.95;4.60;;;;;;;;;;6156689;23;20421;-82
2023/07/13 05:25:53;;;;;;;9.90;4.07;;;;;;;;;;6157332;23;20027;-83
2023/07/13 05:28:19;;;;;;;9.68;4.25;;;;;;;;;;6156000;23;20017;-83
2023/07/13 05:30:46;;;;;;;11.77;3.85;;;;;;;;;;6182253;23;20704;-82
2023/07/13 05:33:12;;;;;;;10.50;4.13;;;;;;;;;;6180914;23;20009;-83
2023/07/13 05:35:38;;;;;;;11.27;4.00;;;;;;;;;;6181654;23;20013;-83
2023/07/13 05:38:04;;;;;;;11.52;3.95;;;;;;;;;;6180306;23;20005;-82
2023/07/13 05:40:30;;;;;;;8.50;4.63;;;;;;;;;;6154615;23;20017;-83
2023/07/13 05:42:57;;;;;;;11.35;4.13;;;;;;;;;;6180587;23;20702;-81
2023/07/13 05:45:22;;;;;;;10.07;4.18;;;;;;;;;;6181941;23;20336;-83
2023/07/13 05:47:48;;;;;;;8.80;3.70;;;;;;;;;;6182002;23;20028;-82
2023/07/13 05:50:14;;;;;;;10.10;4.18;;;;;;;;;;6182484;23;20001;-82
2023/07/13 05:52:40;;;;;;;9.82;3.42;;;;;;;;;;6180605;23;20017;-82
2023/07/13 05:55:07;;;;;;;10.23;3.63;;;;;;;;;;6181254;23;20020;-82
2023/07/13 05:57:33;;;;;;;7.40;3.33;;;;;;;;;;6154139;23;20048;-82
2023/07/13 05:59:59;;;;;;;7.90;3.05;;;;;;;;;;6155180;23;20020;-82
2023/07/13 06:02:26;;;;;;;10.75;3.15;;;;;;;;;;6181932;23;20009;-82
2023/07/13 06:04:52;;;;;;;8.98;3.35;;;;;;;;;;6155126;23;20031;-82
2023/07/13 06:07:18;;;;;;;9.60;3.33;;;;;;;;;;6154547;23;20496;-82
2023/07/13 06:09:44;;;;;;;7.30;2.42;;;;;;;;;;6181558;23;20100;-82
2023/07/13 06:12:10;;;;;;;5.57;2.70;;;;;;;;;;6181640;23;20059;-82
2023/07/13 06:14:36;;;;;;;6.57;2.72;;;;;;;;;;6154717;23;20013;-81
2023/07/13 06:17:02;;;;;;;7.15;2.63;;;;;;;;;;6155086;23;20340;-82
2023/07/13 06:19:29;;;;;;;7.05;2.65;;;;;;;;;;6181465;23;20009;-81
2023/07/13 06:21:55;;;;;;;8.98;2.85;;;;;;;;;;6181242;23;20009;-81
2023/07/13 06:24:21;;;;;;;11.77;2.97;;;;;;;;;;6180660;23;20025;-81
2023/07/13 06:26:47;;;;;;;9.90;3.30;;;;;;;;;;6155062;23;20119;-81
2023/07/13 06:29:13;;;;;;;8.38;2.83;;;;;;;;;;6155126;23;20015;-81
2023/07/13 06:31:39;;;;;;;10.10;3.13;;;;;;;;;;6155042;23;20393;-82
2023/07/13 06:34:05;;;;;;;6.93;2.78;;;;;;;;;;6154446;23;20013;-82
2023/07/13 06:36:31;;;;;;;8.02;2.47;;;;;;;;;;6181699;23;20071;-82
2023/07/13 06:38:57;;;;;;;7.85;2.40;;;;;;;;;;6181222;23;20408;-82
2023/07/13 06:41:25;;;;;;;5.85;2.55;;;;;;;;;;6155288;23;20348;-81
2023/07/13 06:43:51;;;;;;;4.15;1.77;;;;;;;;;;6180988;23;20440;-82
2023/07/13 06:46:17;;;;;;;7.40;1.60;;;;;;;;;;6155047;23;20092;-81
2023/07/13 06:48:43;;;;;;;3.53;1.20;;;;;;;;;;6180954;23;20080;-82
2023/07/13 06:51:09;;;;;;;4.45;1.20;;;;;;;;;;6181992;23;20036;-81
2023/07/13 06:53:35;;;;;;;5.95;1.20;;;;;;;;;;6155303;23;20065;-82
2023/07/13 06:56:01;;;;;;;5.47;1.35;;;;;;;;;;6154200;23;20100;-82
2023/07/13 06:58:27;;;;;;;2.88;1.00;;;;;;;;;;6181319;23;20001;-82
2023/07/13 07:00:53;;;;;;;3.67;1.10;;;;;;;;;;6181031;23;20009;-81
2023/07/13 07:03:19;;;;;;;5.18;1.52;;;;;;;;;;6155058;23;20009;-82
2023/07/13 07:05:45;;;;;;;5.78;1.10;;;;;;;;;;6180788;23;20140;-82
2023/07/13 07:08:11;;;;;;;4.93;1.08;;;;;;;;;;6154943;23;20017;-82
2023/07/13 07:10:37;;;;;;;3.45;1.13;;;;;;;;;;6154718;23;20024;-82
2023/07/13 07:13:04;;;;;;;4.55;1.38;;;;;;;;;;6181778;23;20024;-82
2023/07/13 07:15:30;;;;;;;4.18;2.03;;;;;;;;;;6154068;23;20112;-82
2023/07/13 07:17:56;;;;;;;6.10;1.90;;;;;;;;;;6154892;23;20017;-82
2023/07/13 07:20:22;;;;;;;7.10;2.08;;;;;;;;;;6155536;23;20016;-82
2023/07/13 07:22:48;;;;;;;6.30;1.70;;;;;;;;;;6157352;23;20056;-82
2023/07/13 07:25:15;;;;;;;4.03;1.75;;;;;;;;;;6183280;23;20001;-82
2023/07/13 07:27:40;;;;;;;5.68;2.05;;;;;;;;;;6183237;23;20013;-82
2023/07/13 07:30:07;;;;;;;5.65;1.95;;;;;;;;;;6181174;23;20009;-82
2023/07/13 07:32:33;;;;;;;5.88;1.58;;;;;;;;;;6156912;23;20001;-82
2023/07/13 07:34:59;;;;;;;5.80;1.90;;;;;;;;;;6156655;23;20017;-82
2023/07/13 07:37:25;;;;;;;7.70;2.25;;;;;;;;;;6183753;23;20080;-82
2023/07/13 07:39:51;;;;;;;3.28;1.33;;;;;;;;;;6182722;23;20013;-82
2023/07/13 07:42:17;;;;;;;5.85;2.05;;;;;;;;;;6183120;23;20032;-82
2023/07/13 07:44:43;;;;;;;7.60;1.80;;;;;;;;;;6157451;23;20013;-82
2023/07/13 07:47:09;;;;;;;5.47;1.85;;;;;;;;;;6156318;23;20020;-82
2023/07/13 07:49:36;;;;;;;5.25;1.77;;;;;;;;;;6183130;23;20337;-83
2023/07/13 07:52:02;;;;;;;5.57;1.73;;;;;;;;;;6183667;23;20012;-81
2023/07/13 07:54:28;;;;;;;8.27;2.00;;;;;;;;;;6183222;23;20013;-82
2023/07/13 07:56:54;;;;;;;3.45;1.65;;;;;;;;;;6156561;23;20071;-82
2023/07/13 07:59:20;;;;;;;5.95;2.13;;;;;;;;;;6183821;23;20370;-82
2023/07/13 08:01:47;;;;;;;5.85;1.80;;;;;;;;;;6156640;23;20009;-82
2023/07/13 08:04:14;;;;;;;6.00;2.20;;;;;;;;;;6183450;23;20033;-82
2023/07/13 08:06:39;;;;;;;6.05;1.75;;;;;;;;;;6156610;23;20402;-82
2023/07/13 08:09:05;;;;;;;6.03;2.38;;;;;;;;;;6157617;23;20017;-82
2023/07/13 08:11:31;;;;;;;6.03;1.60;;;;;;;;;;6156932;23;20057;-82
2023/07/13 08:13:57;;;;;;;4.10;1.77;;;;;;;;;;6183871;23;20378;-82
2023/07/13 08:16:24;;;;;;;5.38;1.73;;;;;;;;;;6183062;23;20009;-82
2023/07/13 08:18:50;;;;;;;5.72;1.80;;;;;;;;;;6157575;23;20009;-82
2023/07/13 08:21:16;;;;;;;5.40;1.38;;;;;;;;;;6156387;23;20313;-82
2023/07/13 08:23:42;;;;;;;5.72;1.70;;;;;;;;;;6183664;23;20005;-82
2023/07/13 08:26:08;;;;;;;3.88;1.35;;;;;;;;;;6182631;23;20040;-82
2023/07/13 08:28:35;;;;;;;7.25;1.63;;;;;;;;;;6156237;23;20429;-82
2023/07/13 08:31:04;;;;;;;4.05;1.33;;;;;;;;;;6183190;23;20008;-82
2023/07/13 08:33:30;;;;;;;4.55;1.35;;;;;;;;;;6183324;23;20008;-82
2023/07/13 08:35:56;;;;;;;3.10;1.25;;;;;;;;;;6156054;23;20017;-82
2023/07/13 08:38:23;;;;;;;5.15;1.33;;;;;;;;;;6157130;23;20040;-82
2023/07/13 08:40:51;;;;;;;6.93;1.60;;;;;;;;;;6182961;23;20491;-82
2023/07/13 08:43:18;;;;;;;4.32;1.42;;;;;;;;;;6183922;23;20032;-82
2023/07/13 08:45:51;;;;;;;5.80;1.42;;;;;;;;;;6156371;23;20013;-82
2023/07/13 08:48:36;;;;;;;3.95;1.48;;;;;;;;;;6183567;23;20017;-82
2023/07/13 08:51:08;;;;;;;4.47;1.40;;;;;;;;;;6156642;23;20104;-82
2023/07/13 08:53:34;;;;;;;;;;;;;;;;;;6183658;23;20016;-82
2023/07/13 08:56:00;;;;;;;7.72;2.05;;;;;;;;;;6183037;23;19915;-82
2023/07/13 08:58:28;;;;;;;6.85;2.00;;;;;;;;;;6156683;23;20017;-82
2023/07/13 09:01:12;;;;;;;7.60;1.00;;;;;;;;;;6183313;23;20009;-82
2023/07/13 09:03:44;;;;;;;4.35;0.80;;;;;;;;;;6183120;23;20019;-82
2023/07/13 09:06:12;;;;;;;3.72;0.80;;;;;;;;;;6183050;23;20687;-82
2023/07/13 09:08:49;;;;;;;3.53;0.90;;;;;;;;;;6182630;23;20088;-82
2023/07/13 09:11:34;;;;;;;4.03;0.80;;;;;;;;;;6182614;23;20745;-82
2023/07/13 09:14:00;;;;;;;5.57;1.08;;;;;;;;;;6156084;23;20039;-82
2023/07/13 09:16:26;;;;;;;2.42;0.70;;;;;;;;;;6182760;23;20013;-82
2023/07/13 09:18:55;;;;;;;4.47;1.23;;;;;;;;;;6182621;23;20418;-82
2023/07/13 09:21:47;;;;;;;2.10;0.80;;;;;;;;;;6182923;23;20004;-82
2023/07/13 09:24:25;;;;;;;3.60;1.10;;;;;;;;;;6178381;23;20481;-82
2023/07/13 09:26:52;;;;;;;5.45;0.80;;;;;;;;;;6182917;23;20075;-82
2023/07/13 09:29:24;;;;;;;3.08;1.08;;;;;;;;;;6156686;23;20097;-82
2023/07/13 09:31:53;;;;;;;2.80;1.10;;;;;;;;;;6155737;23;20016;-82
2023/07/13 09:34:19;;;;;;;2.90;0.90;;;;;;;;;;6155440;23;20016;-82
2023/07/13 09:36:45;;;;;;;2.22;0.80;;;;;;;;;;6155800;23;20337;-82
2023/07/13 09:39:26;;;;;;;3.50;0.75;;;;;;;;;;6155277;23;20020;-82
2023/07/13 09:41:52;;;;;;;3.75;0.85;;;;;;;;;;6182272;23;20428;-82
2023/07/13 09:44:19;;;;;;;4.75;0.70;;;;;;;;;;6181510;23;20012;-82
2023/07/13 09:46:47;;;;;;;2.60;0.77;;;;;;;;;;6155195;23;20016;-83
2023/07/13 09:49:13;;;;;;;4.65;0.90;;;;;;;;;;6181926;23;20015;-82
2023/07/13 09:51:41;;;;;;;3.30;0.80;;;;;;;;;;6155662;23;20028;-82
2023/07/13 09:54:18;;;;;;;4.68;0.82;;;;;;;;;;6154410;23;20017;-82
2023/07/13 09:56:44;;;;;;;4.00;0.98;;;;;;;;;;6182414;23;20425;-82
2023/07/13 09:59:21;;;;;;;3.53;0.80;;;;;;;;;;6155419;23;20096;-82
2023/07/13 10:01:48;;;;;;;2.78;0.80;;;;;;;;;;6155392;23;20044;-82
2023/07/13 10:04:18;;;;;;;2.70;0.80;;;;;;;;;;6181447;23;20024;-82
2023/07/13 10:06:45;;;;;;;5.57;1.33;;;;;;;;;;6155853;23;20009;-82
2023/07/13 10:09:15;;;;;;;3.72;1.02;;;;;;;;;;6155110;23;20428;-82
2023/07/13 10:11:41;;;;;;;3.33;1.08;;;;;;;;;;6155570;23;20013;-82
2023/07/13 10:14:13;;;;;;;4.50;1.02;;;;;;;;;;6155388;23;20441;-82
2023/07/13 10:16:42;;;;;;;4.82;0.80;;;;;;;;;;6155710;23;20068;-81
2023/07/13 10:19:11;;;;;;;5.45;1.08;;;;;;;;;;6155170;23;20004;-82
2023/07/13 10:21:48;;;;;;;2.78;0.70;;;;;;;;;;6156494;23;20009;-82
2023/07/13 10:24:25;;;;;;;3.17;0.80;;;;;;;;;;6181601;23;20393;-82
2023/07/13 10:26:57;;;;;;;3.30;0.70;;;;;;;;;;6182463;23;20044;-83
2023/07/13 10:29:24;;;;;;;3.67;0.82;;;;;;;;;;6154705;23;20009;-82
2023/07/13 10:31:50;;;;;;;3.03;0.60;;;;;;;;;;6182380;23;20012;-82
2023/07/13 10:34:17;;;;;;;6.57;0.90;;;;;;;;;;6154578;23;20835;-82
2023/07/13 10:36:44;;;;;;;1.70;0.68;;;;;;;;;;6182131;23;20016;-82
2023/07/13 10:39:16;;;;;;;3.40;0.70;;;;;;;;;;6181291;23;20052;-82
2023/07/13 10:41:43;;;;;;;2.60;0.70;;;;;;;;;;6181331;23;20015;-82
2023/07/13 10:44:19;;;;;;;1.92;0.60;;;;;;;;;;6155206;23;20599;-82
2023/07/13 10:46:46;;;;;;;2.95;0.63;;;;;;;;;;6155259;23;20100;-82
2023/07/13 10:49:12;;;;;;;3.60;0.70;;;;;;;;;;6155410;23;20013;-82
2023/07/13 10:51:38;;;;;;;2.17;0.63;;;;;;;;;;6181269;23;20009;-82
2023/07/13 10:54:10;;;;;;;2.55;0.80;;;;;;;;;;6154906;23;20020;-82
2023/07/13 10:56:36;;;;;;;6.55;0.73;;;;;;;;;;6155320;23;20012;-82
2023/07/13 10:59:24;;;;;;;2.08;0.60;;;;;;;;;;6155748;23;20009;-82
2023/07/13 11:01:54;;;;;;;2.13;0.63;;;;;;;;;;6111916;23;20028;-82
2023/07/13 11:04:21;;;;;;;2.47;0.60;;;;;;;;;;6182019;23;20013;-82
2023/07/13 11:06:49;;;;;;;1.73;0.70;;;;;;;;;;6154610;23;20020;-82
2023/07/13 11:09:29;;;;;;;4.07;0.90;;;;;;;;;;6155201;23;20013;-82
2023/07/13 11:11:57;;;;;;;2.58;0.80;;;;;;;;;;6181218;23;20009;-82
2023/07/13 11:14:46;;;;;;;2.83;0.65;;;;;;;;;;6181721;23;20012;-82
2023/07/13 11:17:35;;;;;;;3.45;0.80;;;;;;;;;;6169872;23;20025;-82
2023/07/13 11:20:13;;;;;;;3.30;0.70;;;;;;;;;;6168635;23;20036;-82
2023/07/13 11:22:50;;;;;;;1.67;0.70;;;;;;;;;;6154850;23;20021;-81
2023/07/13 11:25:29;;;;;;;3.55;0.70;;;;;;;;;;6153992;23;20012;-82
2023/07/13 11:28:13;;;;;;;3.25;1.00;;;;;;;;;;6181844;23;20018;-82
2023/07/13 11:30:40;;;;;;;4.45;0.90;;;;;;;;;;6180671;23;20360;-82
2023/07/13 11:33:21;;;;;;;3.88;1.00;;;;;;;;;;6155167;23;20027;-82
2023/07/13 11:35:59;;;;;;;2.25;0.68;;;;;;;;;;6181152;23;20016;-82
2023/07/13 11:38:39;;;;;;;4.07;0.90;;;;;;;;;;6182084;23;20009;-81
2023/07/13 11:41:19;;;;;;;2.80;0.82;;;;;;;;;;6181209;23;20084;-81
2023/07/13 11:43:46;;;;;;;3.55;0.60;;;;;;;;;;6181328;23;20012;-82
2023/07/13 11:46:15;;;;;;;4.00;1.17;;;;;;;;;;6153967;23;20672;-82
2023/07/13 11:48:41;;;;;;;2.08;0.70;;;;;;;;;;6155050;23;20023;-82
2023/07/13 11:51:12;;;;;;;3.67;0.70;;;;;;;;;;6153996;23;20348;-82
2023/07/13 11:53:45;;;;;;;5.65;0.90;;;;;;;;;;6155002;23;20020;-82
2023/07/13 11:56:11;;;;;;;2.17;0.60;;;;;;;;;;6154001;23;20590;-82
2023/07/13 11:58:37;;;;;;;2.15;0.70;;;;;;;;;;6181462;23;20076;-82
2023/07/13 12:01:06;;;;;;;6.38;0.90;;;;;;;;;;6180898;23;20009;-82
2023/07/13 12:03:34;;;;;;;4.97;0.80;;;;;;;;;;6155471;23;20731;-82
2023/07/13 12:06:07;;;;;;;2.38;0.80;;;;;;;;;;6154910;23;20432;-82
2023/07/13 12:08:40;;;;;;;1.92;0.70;;;;;;;;;;6183716;23;20016;-81
2023/07/13 12:11:10;;;;;;;3.63;0.80;;;;;;;;;;6155795;23;20021;-82
2023/07/13 12:13:39;;;;;;;3.05;0.80;;;;;;;;;;6183211;23;20441;-82
2023/07/13 12:16:11;;;;;;;4.03;0.77;;;;;;;;;;6156325;23;20087;-82
2023/07/13 12:18:38;;;;;;;3.53;0.65;;;;;;;;;;6183255;23;20500;-82
2023/07/13 12:21:05;;;;;;;2.25;0.90;;;;;;;;;;6182263;23;20009;-81
2023/07/13 12:23:33;;;;;;;6.20;0.60;;;;;;;;;;6182833;23;20433;-82
2023/07/13 12:26:00;;;;;;;2.63;0.60;;;;;;;;;;6156430;23;20649;-82
2023/07/13 12:28:37;;;;;;;1.75;0.68;;;;;;;;;;6182863;23;20336;-82
2023/07/13 12:31:04;;;;;;;3.10;0.73;;;;;;;;;;6156258;23;20013;-82
2023/07/13 12:33:32;;;;;;;4.45;0.65;;;;;;;;;;6155997;23;20100;-82
2023/07/13 12:36:01;;;;;;;3.42;0.68;;;;;;;;;;6182791;23;20033;-82
2023/07/13 12:38:27;;;;;;;2.33;0.50;;;;;;;;;;6182390;23;20001;-81
2023/07/13 12:40:54;;;;;;;1.58;0.60;;;;;;;;;;6156115;23;20035;-82
2023/07/13 12:43:21;;;;;;;1.50;0.50;;;;;;;;;;6155657;23;20020;-82
2023/07/13 12:46:03;;;;;;;4.03;1.00;;;;;;;;;;6183239;23;20039;-80
2023/07/13 12:48:29;;;;;;;2.33;0.55;;;;;;;;;;6182622;23;20013;-82
2023/07/13 12:50:56;;;;;;;4.68;0.60;;;;;;;;;;6156615;23;20096;-82
2023/07/13 12:53:23;;;;;;;3.65;0.80;;;;;;;;;;6156077;23;20013;-80
2023/07/13 12:55:51;;;;;;;1.42;0.52;;;;;;;;;;6156288;23;20013;-82
2023/07/13 12:58:28;;;;;;;1.17;0.40;;;;;;;;;;6155211;23;20013;-82
2023/07/13 13:00:58;;;;;;;2.38;0.70;;;;;;;;;;6183222;23;20080;-82
2023/07/13 13:03:27;;;;;;;1.40;0.50;;;;;;;;;;6155611;23;20430;-80
2023/07/13 13:06:04;;;;;;;2.72;0.70;;;;;;;;;;6156622;23;20433;-83
2023/07/13 13:08:37;;;;;;;4.00;0.68;;;;;;;;;;6155884;23;20017;-82
2023/07/13 13:11:03;;;;;;;3.22;0.70;;;;;;;;;;6156904;23;20017;-82
2023/07/13 13:13:29;;;;;;;0.90;0.40;;;;;;;;;;6181568;23;20025;-82
2023/07/13 13:15:57;;;;;;;3.13;0.60;;;;;;;;;;6155791;23;20023;-82
2023/07/13 13:18:24;;;;;;;2.70;0.75;;;;;;;;;;6155964;23;20702;-82
2023/07/13 13:20:51;;;;;;;4.18;0.60;;;;;;;;;;6157020;23;20052;-82
2023/07/13 13:23:19;;;;;;;3.00;0.40;;;;;;;;;;6155644;23;20057;-82
2023/07/13 13:25:49;;;;;;;3.13;0.88;;;;;;;;;;6156001;23;20439;-82
2023/07/13 13:28:16;;;;;;;1.95;0.45;;;;;;;;;;6180550;23;20013;-82
2023/07/13 13:30:43;;;;;;;2.70;0.70;;;;;;;;;;6182781;23;20650;-82
2023/07/13 13:33:13;;;;;;;1.45;0.50;;;;;;;;;;6155874;23;20027;-82
2023/07/13 13:35:39;;;;;;;3.40;0.50;;;;;;;;;;6182910;23;20013;-82
2023/07/13 13:38:15;;;;;;;1.25;0.40;;;;;;;;;;6156258;23;20013;-82
2023/07/13 13:40:42;;;;;;;1.10;0.40;;;;;;;;;;6182611;23;20005;-82
2023/07/13 13:43:16;;;;;;;2.10;0.63;;;;;;;;;;6155876;23;20023;-82
2023/07/13 13:45:42;;;;;;;1.98;0.60;;;;;;;;;;6182127;23;20012;-82
2023/07/13 13:48:14;;;;;;;2.58;0.68;;;;;;;;;;6182358;23;20433;-82
2023/07/13 13:50:40;;;;;;;4.70;0.52;;;;;;;;;;6155411;23;20047;-82
2023/07/13 13:53:09;;;;;;;1.92;0.50;;;;;;;;;;6156058;23;20490;-82
2023/07/13 13:55:35;;;;;;;6.40;0.60;;;;;;;;;;6154900;23;20013;-82
2023/07/13 13:58:01;;;;;;;6.53;0.80;;;;;;;;;;6182179;23;20015;-82
2023/07/13 14:00:27;;;;;;;2.55;0.65;;;;;;;;;;6180629;23;20029;-82
2023/07/13 14:02:57;;;;;;;2.78;0.80;;;;;;;;;;6182506;23;20431;-82
2023/07/13 14:05:27;;;;;;;2.45;0.50;;;;;;;;;;6154182;23;20017;-82
2023/07/13 14:07:56;;;;;;;2.30;0.43;;;;;;;;;;6179465;23;20031;-81
2023/07/13 14:10:23;;;;;;;2.67;0.60;;;;;;;;;;6180927;23;20008;-82
2023/07/13 14:12:51;;;;;;;2.45;0.70;;;;;;;;;;6154948;23;20047;-81
2023/07/13 14:15:22;;;;;;;2.80;0.47;;;;;;;;;;6180968;23;20044;-82
2023/07/13 14:17:51;;;;;;;3.65;0.43;;;;;;;;;;6182504;23;20004;-82
2023/07/13 14:20:18;;;;;;;2.63;0.55;;;;;;;;;;6181211;23;20009;-82
2023/07/13 14:22:47;;;;;;;4.65;0.75;;;;;;;;;;6155408;23;20013;-82
2023/07/13 14:25:13;;;;;;;4.38;0.80;;;;;;;;;;6154313;23;20009;-82
2023/07/13 14:27:42;;;;;;;2.05;0.47;;;;;;;;;;6182505;23;20079;-83
2023/07/13 14:30:15;;;;;;;2.15;0.50;;;;;;;;;;6154767;23;20013;-82
2023/07/13 14:32:41;;;;;;;3.80;0.50;;;;;;;;;;6181776;23;20084;-82
2023/07/13 14:35:14;;;;;;;3.63;0.60;;;;;;;;;;6181905;23;20080;-81
2023/07/13 14:37:40;;;;;;;1.88;0.50;;;;;;;;;;6182285;23;20080;-82
2023/07/13 14:40:26;;;;;;;2.85;0.50;;;;;;;;;;6181605;23;20009;-82
2023/07/13 14:42:52;;;;;;;3.85;0.68;;;;;;;;;;6154873;23;20024;-82
2023/07/13 14:45:19;;;;;;;5.55;0.77;;;;;;;;;;6155464;23;20017;-83
2023/07/13 14:47:45;;;;;;;3.45;0.80;;;;;;;;;;6154846;23;20574;-82
2023/07/13 14:50:16;;;;;;;2.20;0.60;;;;;;;;;;6154836;23;20017;-82